sensor_id;sensor_type;location;lat;lon;timestamp;P1;durP1;ratioP1;P2;durP2;ratioP2
32333;SDS011;18810;53.040;8.850;2023-11-18T00:01:08;52.38;;;28.00;;
32333;SDS011;18810;53.040;8.850;2023-11-18T00:03:34;56.97;;;27.00;;
32333;SDS011;18810;53.040;8.850;2023-11-18T00:06:00;48.65;;;25.42;;
32333;SDS011;18810;53.040;8.850;2023-11-18T00:08:26;49.47;;;23.48;;
32333;SDS011;18810;53.040;8.850;2023-11-18T00:10:51;44.20;;;21.85;;
32333;SDS011;18810;53.040;8.850;2023-11-18T00:13:17;38.40;;;20.23;;
32333;SDS011;18810;53.040;8.850;2023-11-18T00:15:43;38.67;;;21.20;;
32333;SDS011;18810;53.040;8.850;2023-11-18T00:18:11;41.28;;;21.77;;
32333;SDS011;18810;53.040;8.850;2023-11-18T00:20:37;40.47;;;22.73;;
32333;SDS011;18810;53.040;8.850;2023-11-18T00:23:02;36.08;;;20.83;;
32333;SDS011;18810;53.040;8.850;2023-11-18T00:25:31;25.90;;;16.45;;
32333;SDS011;18810;53.040;8.850;2023-11-18T00:27:59;25.83;;;16.55;;
32333;SDS011;18810;53.040;8.850;2023-11-18T00:30:24;29.90;;;16.67;;
32333;SDS011;18810;53.040;8.850;2023-11-18T00:32:50;25.63;;;15.85;;
32333;SDS011;18810;53.040;8.850;2023-11-18T00:35:16;26.25;;;16.52;;
32333;SDS011;18810;53.040;8.850;2023-11-18T00:37:41;28.83;;;16.20;;
32333;SDS011;18810;53.040;8.850;2023-11-18T00:40:08;23.27;;;14.95;;
32333;SDS011;18810;53.040;8.850;2023-11-18T00:42:34;20.27;;;13.65;;
32333;SDS011;18810;53.040;8.850;2023-11-18T00:45:00;23.00;;;13.73;;
32333;SDS011;18810;53.040;8.850;2023-11-18T00:47:25;19.70;;;13.48;;
32333;SDS011;18810;53.040;8.850;2023-11-18T00:49:51;17.58;;;13.25;;
32333;SDS011;18810;53.040;8.850;2023-11-18T00:52:18;21.33;;;14.05;;
32333;SDS011;18810;53.040;8.850;2023-11-18T00:54:44;18.63;;;12.95;;
32333;SDS011;18810;53.040;8.850;2023-11-18T00:57:10;17.58;;;13.38;;
32333;SDS011;18810;53.040;8.850;2023-11-18T00:59:36;20.77;;;13.35;;
32333;SDS011;18810;53.040;8.850;2023-11-18T01:02:02;20.05;;;13.43;;
32333;SDS011;18810;53.040;8.850;2023-11-18T01:04:28;22.27;;;14.00;;
32333;SDS011;18810;53.040;8.850;2023-11-18T01:06:54;21.42;;;14.60;;
32333;SDS011;18810;53.040;8.850;2023-11-18T01:09:20;23.60;;;14.45;;
32333;SDS011;18810;53.040;8.850;2023-11-18T01:11:45;22.38;;;14.10;;
32333;SDS011;18810;53.040;8.850;2023-11-18T01:14:11;22.35;;;14.20;;
32333;SDS011;18810;53.040;8.850;2023-11-18T01:16:37;19.40;;;13.70;;
32333;SDS011;18810;53.040;8.850;2023-11-18T01:19:03;22.70;;;13.23;;
32333;SDS011;18810;53.040;8.850;2023-11-18T01:21:29;19.15;;;13.38;;
32333;SDS011;18810;53.040;8.850;2023-11-18T01:23:55;19.80;;;13.43;;
32333;SDS011;18810;53.040;8.850;2023-11-18T01:26:20;19.30;;;13.82;;
32333;SDS011;18810;53.040;8.850;2023-11-18T01:28:48;19.17;;;12.25;;
32333;SDS011;18810;53.040;8.850;2023-11-18T01:31:14;21.52;;;13.20;;
32333;SDS011;18810;53.040;8.850;2023-11-18T01:33:40;21.60;;;12.90;;
32333;SDS011;18810;53.040;8.850;2023-11-18T01:36:09;19.65;;;13.85;;
32333;SDS011;18810;53.040;8.850;2023-11-18T01:38:35;19.48;;;13.32;;
32333;SDS011;18810;53.040;8.850;2023-11-18T01:41:02;20.25;;;13.07;;
32333;SDS011;18810;53.040;8.850;2023-11-18T01:43:32;23.10;;;13.80;;
32333;SDS011;18810;53.040;8.850;2023-11-18T01:46:02;19.17;;;13.18;;
32333;SDS011;18810;53.040;8.850;2023-11-18T01:48:30;21.15;;;13.05;;
32333;SDS011;18810;53.040;8.850;2023-11-18T01:50:58;19.60;;;13.35;;
32333;SDS011;18810;53.040;8.850;2023-11-18T01:53:26;20.05;;;13.23;;
32333;SDS011;18810;53.040;8.850;2023-11-18T01:55:53;17.85;;;12.57;;
32333;SDS011;18810;53.040;8.850;2023-11-18T01:58:19;15.88;;;12.02;;
32333;SDS011;18810;53.040;8.850;2023-11-18T02:00:48;20.98;;;12.88;;
32333;SDS011;18810;53.040;8.850;2023-11-18T02:03:16;18.23;;;12.48;;
32333;SDS011;18810;53.040;8.850;2023-11-18T02:05:42;15.40;;;11.10;;
32333;SDS011;18810;53.040;8.850;2023-11-18T02:08:08;18.50;;;12.52;;
32333;SDS011;18810;53.040;8.850;2023-11-18T02:10:48;18.98;;;11.73;;
32333;SDS011;18810;53.040;8.850;2023-11-18T02:13:32;18.77;;;12.30;;
32333;SDS011;18810;53.040;8.850;2023-11-18T02:16:00;16.88;;;11.32;;
32333;SDS011;18810;53.040;8.850;2023-11-18T02:18:32;17.75;;;12.32;;
32333;SDS011;18810;53.040;8.850;2023-11-18T02:20:58;16.75;;;12.35;;
32333;SDS011;18810;53.040;8.850;2023-11-18T02:23:25;15.60;;;11.48;;
32333;SDS011;18810;53.040;8.850;2023-11-18T02:25:51;16.45;;;12.10;;
32333;SDS011;18810;53.040;8.850;2023-11-18T02:28:18;16.35;;;11.52;;
32333;SDS011;18810;53.040;8.850;2023-11-18T02:30:47;15.48;;;11.23;;
32333;SDS011;18810;53.040;8.850;2023-11-18T02:33:19;18.42;;;12.35;;
32333;SDS011;18810;53.040;8.850;2023-11-18T02:35:51;17.33;;;11.93;;
32333;SDS011;18810;53.040;8.850;2023-11-18T02:38:22;16.38;;;11.18;;
32333;SDS011;18810;53.040;8.850;2023-11-18T02:40:56;17.08;;;11.07;;
32333;SDS011;18810;53.040;8.850;2023-11-18T02:43:24;18.98;;;11.95;;
32333;SDS011;18810;53.040;8.850;2023-11-18T02:45:53;17.17;;;11.18;;
32333;SDS011;18810;53.040;8.850;2023-11-18T02:48:22;18.02;;;11.32;;
32333;SDS011;18810;53.040;8.850;2023-11-18T02:50:48;17.95;;;12.48;;
32333;SDS011;18810;53.040;8.850;2023-11-18T02:53:14;19.48;;;12.55;;
32333;SDS011;18810;53.040;8.850;2023-11-18T02:55:40;17.83;;;11.95;;
32333;SDS011;18810;53.040;8.850;2023-11-18T02:58:06;18.23;;;11.88;;
32333;SDS011;18810;53.040;8.850;2023-11-18T03:00:33;17.75;;;11.30;;
32333;SDS011;18810;53.040;8.850;2023-11-18T03:02:59;19.83;;;12.43;;
32333;SDS011;18810;53.040;8.850;2023-11-18T03:05:24;21.23;;;13.88;;
32333;SDS011;18810;53.040;8.850;2023-11-18T03:07:51;20.20;;;13.40;;
32333;SDS011;18810;53.040;8.850;2023-11-18T03:10:20;19.15;;;13.00;;
32333;SDS011;18810;53.040;8.850;2023-11-18T03:12:49;21.45;;;12.50;;
32333;SDS011;18810;53.040;8.850;2023-11-18T03:15:17;22.02;;;12.98;;
32333;SDS011;18810;53.040;8.850;2023-11-18T03:17:49;19.98;;;12.38;;
32333;SDS011;18810;53.040;8.850;2023-11-18T03:20:16;22.75;;;13.20;;
32333;SDS011;18810;53.040;8.850;2023-11-18T03:22:42;17.80;;;12.50;;
32333;SDS011;18810;53.040;8.850;2023-11-18T03:25:12;21.17;;;13.00;;
32333;SDS011;18810;53.040;8.850;2023-11-18T03:27:38;18.75;;;13.07;;
32333;SDS011;18810;53.040;8.850;2023-11-18T03:30:04;20.50;;;13.93;;
32333;SDS011;18810;53.040;8.850;2023-11-18T03:32:32;20.42;;;13.73;;
32333;SDS011;18810;53.040;8.850;2023-11-18T03:34:57;22.83;;;14.38;;
32333;SDS011;18810;53.040;8.850;2023-11-18T03:37:26;23.45;;;14.98;;
32333;SDS011;18810;53.040;8.850;2023-11-18T03:39:52;22.00;;;13.95;;
32333;SDS011;18810;53.040;8.850;2023-11-18T03:42:18;23.60;;;15.40;;
32333;SDS011;18810;53.040;8.850;2023-11-18T03:44:44;24.67;;;15.65;;
32333;SDS011;18810;53.040;8.850;2023-11-18T03:47:13;26.35;;;16.42;;
32333;SDS011;18810;53.040;8.850;2023-11-18T03:49:39;24.05;;;15.35;;
32333;SDS011;18810;53.040;8.850;2023-11-18T03:52:06;26.80;;;17.85;;
32333;SDS011;18810;53.040;8.850;2023-11-18T03:54:31;25.10;;;17.20;;
32333;SDS011;18810;53.040;8.850;2023-11-18T03:56:57;28.85;;;18.75;;
32333;SDS011;18810;53.040;8.850;2023-11-18T03:59:24;28.27;;;19.15;;
32333;SDS011;18810;53.040;8.850;2023-11-18T04:01:50;32.10;;;19.75;;
32333;SDS011;18810;53.040;8.850;2023-11-18T04:04:16;32.90;;;19.83;;
32333;SDS011;18810;53.040;8.850;2023-11-18T04:06:42;36.75;;;22.55;;
32333;SDS011;18810;53.040;8.850;2023-11-18T04:09:09;36.53;;;21.65;;
32333;SDS011;18810;53.040;8.850;2023-11-18T04:11:35;37.88;;;22.20;;
32333;SDS011;18810;53.040;8.850;2023-11-18T04:14:01;37.70;;;23.00;;
32333;SDS011;18810;53.040;8.850;2023-11-18T04:16:28;36.13;;;22.05;;
32333;SDS011;18810;53.040;8.850;2023-11-18T04:18:54;39.00;;;23.35;;
32333;SDS011;18810;53.040;8.850;2023-11-18T04:21:21;37.42;;;24.80;;
32333;SDS011;18810;53.040;8.850;2023-11-18T04:23:47;41.95;;;23.52;;
32333;SDS011;18810;53.040;8.850;2023-11-18T04:26:13;41.22;;;24.90;;
32333;SDS011;18810;53.040;8.850;2023-11-18T04:28:39;41.33;;;25.75;;
32333;SDS011;18810;53.040;8.850;2023-11-18T04:31:05;42.72;;;25.75;;
32333;SDS011;18810;53.040;8.850;2023-11-18T04:33:31;46.65;;;27.33;;
32333;SDS011;18810;53.040;8.850;2023-11-18T04:35:57;46.13;;;27.05;;
32333;SDS011;18810;53.040;8.850;2023-11-18T04:38:23;51.53;;;28.25;;
32333;SDS011;18810;53.040;8.850;2023-11-18T04:40:50;52.75;;;29.00;;
32333;SDS011;18810;53.040;8.850;2023-11-18T04:43:16;50.08;;;29.50;;
32333;SDS011;18810;53.040;8.850;2023-11-18T04:45:42;51.90;;;29.58;;
32333;SDS011;18810;53.040;8.850;2023-11-18T04:48:08;49.00;;;27.48;;
32333;SDS011;18810;53.040;8.850;2023-11-18T04:50:34;55.95;;;31.15;;
32333;SDS011;18810;53.040;8.850;2023-11-18T04:53:00;53.95;;;29.33;;
32333;SDS011;18810;53.040;8.850;2023-11-18T04:55:27;55.78;;;29.80;;
32333;SDS011;18810;53.040;8.850;2023-11-18T04:57:53;55.10;;;31.60;;
32333;SDS011;18810;53.040;8.850;2023-11-18T05:00:19;53.28;;;29.73;;
32333;SDS011;18810;53.040;8.850;2023-11-18T05:02:46;60.75;;;33.67;;
32333;SDS011;18810;53.040;8.850;2023-11-18T05:05:13;54.83;;;31.75;;
32333;SDS011;18810;53.040;8.850;2023-11-18T05:07:42;63.35;;;34.50;;
32333;SDS011;18810;53.040;8.850;2023-11-18T05:10:08;63.35;;;35.60;;
32333;SDS011;18810;53.040;8.850;2023-11-18T05:12:38;65.80;;;34.92;;
32333;SDS011;18810;53.040;8.850;2023-11-18T05:15:05;65.00;;;36.63;;
32333;SDS011;18810;53.040;8.850;2023-11-18T05:17:36;71.43;;;37.80;;
32333;SDS011;18810;53.040;8.850;2023-11-18T05:20:05;65.25;;;37.55;;
32333;SDS011;18810;53.040;8.850;2023-11-18T05:22:35;70.03;;;39.03;;
32333;SDS011;18810;53.040;8.850;2023-11-18T05:25:02;72.40;;;39.80;;
32333;SDS011;18810;53.040;8.850;2023-11-18T05:27:29;76.10;;;39.80;;
32333;SDS011;18810;53.040;8.850;2023-11-18T05:29:56;77.40;;;39.83;;
32333;SDS011;18810;53.040;8.850;2023-11-18T05:32:26;75.97;;;41.88;;
32333;SDS011;18810;53.040;8.850;2023-11-18T05:34:53;82.50;;;42.78;;
32333;SDS011;18810;53.040;8.850;2023-11-18T05:37:23;78.70;;;43.08;;
32333;SDS011;18810;53.040;8.850;2023-11-18T05:39:49;86.53;;;43.67;;
32333;SDS011;18810;53.040;8.850;2023-11-18T05:42:24;79.65;;;43.88;;
32333;SDS011;18810;53.040;8.850;2023-11-18T05:44:50;81.72;;;43.40;;
32333;SDS011;18810;53.040;8.850;2023-11-18T05:47:24;82.65;;;44.53;;
32333;SDS011;18810;53.040;8.850;2023-11-18T05:49:52;84.78;;;43.70;;
32333;SDS011;18810;53.040;8.850;2023-11-18T05:52:19;86.18;;;45.70;;
32333;SDS011;18810;53.040;8.850;2023-11-18T05:54:47;84.78;;;44.70;;
32333;SDS011;18810;53.040;8.850;2023-11-18T05:57:17;87.00;;;43.67;;
32333;SDS011;18810;53.040;8.850;2023-11-18T05:59:43;84.95;;;45.58;;
32333;SDS011;18810;53.040;8.850;2023-11-18T06:02:09;89.10;;;44.72;;
32333;SDS011;18810;53.040;8.850;2023-11-18T06:04:42;85.32;;;45.35;;
32333;SDS011;18810;53.040;8.850;2023-11-18T06:07:08;96.47;;;48.15;;
32333;SDS011;18810;53.040;8.850;2023-11-18T06:09:34;95.85;;;47.15;;
32333;SDS011;18810;53.040;8.850;2023-11-18T06:12:00;96.82;;;48.65;;
32333;SDS011;18810;53.040;8.850;2023-11-18T06:14:25;104.30;;;48.97;;
32333;SDS011;18810;53.040;8.850;2023-11-18T06:16:51;104.80;;;49.95;;
32333;SDS011;18810;53.040;8.850;2023-11-18T06:19:17;102.38;;;48.95;;
32333;SDS011;18810;53.040;8.850;2023-11-18T06:21:43;100.75;;;49.03;;
32333;SDS011;18810;53.040;8.850;2023-11-18T06:24:09;116.55;;;51.35;;
32333;SDS011;18810;53.040;8.850;2023-11-18T06:26:36;113.95;;;52.08;;
32333;SDS011;18810;53.040;8.850;2023-11-18T06:29:02;111.75;;;54.15;;
32333;SDS011;18810;53.040;8.850;2023-11-18T06:31:31;114.03;;;52.22;;
32333;SDS011;18810;53.040;8.850;2023-11-18T06:33:58;123.03;;;53.00;;
32333;SDS011;18810;53.040;8.850;2023-11-18T06:36:23;125.05;;;55.47;;
32333;SDS011;18810;53.040;8.850;2023-11-18T06:38:51;116.63;;;54.85;;
32333;SDS011;18810;53.040;8.850;2023-11-18T06:41:20;114.07;;;53.60;;
32333;SDS011;18810;53.040;8.850;2023-11-18T06:43:51;140.13;;;59.53;;
32333;SDS011;18810;53.040;8.850;2023-11-18T06:46:27;129.73;;;57.83;;
32333;SDS011;18810;53.040;8.850;2023-11-18T06:48:54;131.32;;;55.60;;
32333;SDS011;18810;53.040;8.850;2023-11-18T06:51:24;134.52;;;57.05;;
32333;SDS011;18810;53.040;8.850;2023-11-18T06:56:17;138.35;;;57.47;;
32333;SDS011;18810;53.040;8.850;2023-11-18T06:58:43;138.40;;;60.55;;
32333;SDS011;18810;53.040;8.850;2023-11-18T07:01:09;153.00;;;61.05;;
32333;SDS011;18810;53.040;8.850;2023-11-18T07:03:38;144.13;;;61.55;;
32333;SDS011;18810;53.040;8.850;2023-11-18T07:06:06;137.18;;;61.80;;
32333;SDS011;18810;53.040;8.850;2023-11-18T07:08:32;166.48;;;63.47;;
32333;SDS011;18810;53.040;8.850;2023-11-18T07:11:00;166.75;;;65.10;;
32333;SDS011;18810;53.040;8.850;2023-11-18T07:13:26;150.73;;;66.30;;
32333;SDS011;18810;53.040;8.850;2023-11-18T07:15:52;151.35;;;63.85;;
32333;SDS011;18810;53.040;8.850;2023-11-18T07:18:23;157.85;;;65.15;;
32333;SDS011;18810;53.040;8.850;2023-11-18T07:20:49;164.73;;;65.63;;
32333;SDS011;18810;53.040;8.850;2023-11-18T07:23:17;166.05;;;64.97;;
32333;SDS011;18810;53.040;8.850;2023-11-18T07:25:46;156.32;;;63.65;;
32333;SDS011;18810;53.040;8.850;2023-11-18T07:28:12;163.07;;;65.45;;
32333;SDS011;18810;53.040;8.850;2023-11-18T07:30:41;172.43;;;64.72;;
32333;SDS011;18810;53.040;8.850;2023-11-18T07:33:07;164.20;;;64.85;;
32333;SDS011;18810;53.040;8.850;2023-11-18T07:35:34;165.45;;;66.00;;
32333;SDS011;18810;53.040;8.850;2023-11-18T07:38:02;146.48;;;59.42;;
32333;SDS011;18810;53.040;8.850;2023-11-18T07:40:27;151.02;;;64.82;;
32333;SDS011;18810;53.040;8.850;2023-11-18T07:42:54;165.93;;;61.90;;
32333;SDS011;18810;53.040;8.850;2023-11-18T07:45:26;146.88;;;62.78;;
32333;SDS011;18810;53.040;8.850;2023-11-18T07:47:53;156.05;;;60.75;;
32333;SDS011;18810;53.040;8.850;2023-11-18T07:50:20;162.88;;;63.45;;
32333;SDS011;18810;53.040;8.850;2023-11-18T07:52:46;168.77;;;64.93;;
32333;SDS011;18810;53.040;8.850;2023-11-18T07:55:13;169.73;;;65.55;;
32333;SDS011;18810;53.040;8.850;2023-11-18T07:57:40;142.43;;;59.17;;
32333;SDS011;18810;53.040;8.850;2023-11-18T08:00:06;133.75;;;57.92;;
32333;SDS011;18810;53.040;8.850;2023-11-18T08:02:34;149.90;;;60.50;;
32333;SDS011;18810;53.040;8.850;2023-11-18T08:05:03;137.25;;;58.67;;
32333;SDS011;18810;53.040;8.850;2023-11-18T08:07:33;141.52;;;59.53;;
32333;SDS011;18810;53.040;8.850;2023-11-18T08:10:00;167.27;;;61.67;;
32333;SDS011;18810;53.040;8.850;2023-11-18T08:12:28;161.55;;;62.53;;
32333;SDS011;18810;53.040;8.850;2023-11-18T08:14:55;155.73;;;62.22;;
32333;SDS011;18810;53.040;8.850;2023-11-18T08:17:22;140.00;;;60.70;;
32333;SDS011;18810;53.040;8.850;2023-11-18T08:19:48;142.48;;;58.42;;
32333;SDS011;18810;53.040;8.850;2023-11-18T08:22:15;141.88;;;60.05;;
32333;SDS011;18810;53.040;8.850;2023-11-18T08:24:43;138.40;;;59.65;;
32333;SDS011;18810;53.040;8.850;2023-11-18T08:27:13;155.57;;;67.70;;
32333;SDS011;18810;53.040;8.850;2023-11-18T08:29:39;154.75;;;65.50;;
32333;SDS011;18810;53.040;8.850;2023-11-18T08:32:05;148.10;;;59.90;;
32333;SDS011;18810;53.040;8.850;2023-11-18T08:34:34;158.43;;;63.78;;
32333;SDS011;18810;53.040;8.850;2023-11-18T08:37:02;153.35;;;61.80;;
32333;SDS011;18810;53.040;8.850;2023-11-18T08:39:29;151.70;;;61.05;;
32333;SDS011;18810;53.040;8.850;2023-11-18T08:41:55;145.65;;;61.28;;
32333;SDS011;18810;53.040;8.850;2023-11-18T08:44:21;159.45;;;63.22;;
32333;SDS011;18810;53.040;8.850;2023-11-18T08:46:48;151.95;;;60.30;;
32333;SDS011;18810;53.040;8.850;2023-11-18T08:49:14;143.48;;;59.08;;
32333;SDS011;18810;53.040;8.850;2023-11-18T08:51:46;158.95;;;60.65;;
32333;SDS011;18810;53.040;8.850;2023-11-18T08:54:21;148.38;;;60.17;;
32333;SDS011;18810;53.040;8.850;2023-11-18T08:57:06;154.98;;;61.47;;
32333;SDS011;18810;53.040;8.850;2023-11-18T08:59:50;142.52;;;60.58;;
32333;SDS011;18810;53.040;8.850;2023-11-18T09:02:19;138.48;;;58.38;;
32333;SDS011;18810;53.040;8.850;2023-11-18T09:04:51;141.77;;;59.72;;
32333;SDS011;18810;53.040;8.850;2023-11-18T09:07:20;132.35;;;57.17;;
32333;SDS011;18810;53.040;8.850;2023-11-18T09:09:46;140.70;;;60.67;;
32333;SDS011;18810;53.040;8.850;2023-11-18T09:12:16;149.53;;;59.43;;
32333;SDS011;18810;53.040;8.850;2023-11-18T09:14:44;136.35;;;57.20;;
32333;SDS011;18810;53.040;8.850;2023-11-18T09:17:12;140.02;;;57.80;;
32333;SDS011;18810;53.040;8.850;2023-11-18T09:19:40;136.23;;;57.97;;
32333;SDS011;18810;53.040;8.850;2023-11-18T09:22:05;125.72;;;54.13;;
32333;SDS011;18810;53.040;8.850;2023-11-18T09:24:31;120.93;;;56.10;;
32333;SDS011;18810;53.040;8.850;2023-11-18T09:26:58;125.32;;;54.30;;
32333;SDS011;18810;53.040;8.850;2023-11-18T09:29:24;118.80;;;52.15;;
32333;SDS011;18810;53.040;8.850;2023-11-18T09:31:50;123.32;;;52.45;;
32333;SDS011;18810;53.040;8.850;2023-11-18T09:34:19;115.93;;;50.90;;
32333;SDS011;18810;53.040;8.850;2023-11-18T09:36:52;114.40;;;50.45;;
32333;SDS011;18810;53.040;8.850;2023-11-18T09:39:20;116.35;;;51.33;;
32333;SDS011;18810;53.040;8.850;2023-11-18T09:42:02;120.32;;;50.45;;
32333;SDS011;18810;53.040;8.850;2023-11-18T09:44:30;109.38;;;47.88;;
32333;SDS011;18810;53.040;8.850;2023-11-18T09:46:57;112.40;;;50.60;;
32333;SDS011;18810;53.040;8.850;2023-11-18T09:49:31;106.18;;;48.00;;
32333;SDS011;18810;53.040;8.850;2023-11-18T09:52:04;107.50;;;46.67;;
32333;SDS011;18810;53.040;8.850;2023-11-18T09:57:55;105.50;;;47.08;;
32333;SDS011;18810;53.040;8.850;2023-11-18T10:00:23;101.72;;;45.58;;
32333;SDS011;18810;53.040;8.850;2023-11-18T10:02:52;103.97;;;45.88;;
32333;SDS011;18810;53.040;8.850;2023-11-18T10:05:20;99.70;;;46.53;;
32333;SDS011;18810;53.040;8.850;2023-11-18T10:07:51;95.53;;;45.83;;
32333;SDS011;18810;53.040;8.850;2023-11-18T10:10:18;98.50;;;45.90;;
32333;SDS011;18810;53.040;8.850;2023-11-18T10:12:46;98.35;;;44.92;;
32333;SDS011;18810;53.040;8.850;2023-11-18T10:15:23;101.22;;;43.38;;
32333;SDS011;18810;53.040;8.850;2023-11-18T10:17:49;89.32;;;43.40;;
32333;SDS011;18810;53.040;8.850;2023-11-18T10:20:50;90.80;;;43.30;;
32333;SDS011;18810;53.040;8.850;2023-11-18T10:23:17;100.82;;;45.90;;
32333;SDS011;18810;53.040;8.850;2023-11-18T10:25:47;100.57;;;45.40;;
32333;SDS011;18810;53.040;8.850;2023-11-18T10:28:23;97.50;;;45.25;;
32333;SDS011;18810;53.040;8.850;2023-11-18T10:30:52;95.65;;;44.35;;
32333;SDS011;18810;53.040;8.850;2023-11-18T10:33:18;103.03;;;46.05;;
32333;SDS011;18810;53.040;8.850;2023-11-18T10:35:51;91.47;;;46.65;;
32333;SDS011;18810;53.040;8.850;2023-11-18T10:38:17;99.10;;;45.08;;
32333;SDS011;18810;53.040;8.850;2023-11-18T10:40:43;104.18;;;47.47;;
32333;SDS011;18810;53.040;8.850;2023-11-18T10:43:10;111.93;;;48.80;;
32333;SDS011;18810;53.040;8.850;2023-11-18T10:45:36;105.32;;;46.25;;
32333;SDS011;18810;53.040;8.850;2023-11-18T10:48:06;110.93;;;50.60;;
32333;SDS011;18810;53.040;8.850;2023-11-18T10:50:31;105.20;;;49.92;;
32333;SDS011;18810;53.040;8.850;2023-11-18T10:52:59;114.68;;;50.50;;
32333;SDS011;18810;53.040;8.850;2023-11-18T10:55:39;113.75;;;50.28;;
32333;SDS011;18810;53.040;8.850;2023-11-18T10:58:07;116.00;;;50.15;;
32333;SDS011;18810;53.040;8.850;2023-11-18T11:00:46;109.03;;;50.67;;
32333;SDS011;18810;53.040;8.850;2023-11-18T11:03:17;102.97;;;48.22;;
32333;SDS011;18810;53.040;8.850;2023-11-18T11:05:43;104.43;;;48.45;;
32333;SDS011;18810;53.040;8.850;2023-11-18T11:08:16;96.47;;;47.70;;
32333;SDS011;18810;53.040;8.850;2023-11-18T11:10:45;100.75;;;46.97;;
32333;SDS011;18810;53.040;8.850;2023-11-18T11:13:14;96.88;;;46.78;;
32333;SDS011;18810;53.040;8.850;2023-11-18T11:15:43;96.00;;;45.60;;
32333;SDS011;18810;53.040;8.850;2023-11-18T11:18:11;91.10;;;44.42;;
32333;SDS011;18810;53.040;8.850;2023-11-18T11:29:18;87.70;;;43.95;;
32333;SDS011;18810;53.040;8.850;2023-11-18T11:31:54;86.38;;;42.03;;
32333;SDS011;18810;53.040;8.850;2023-11-18T11:34:30;82.18;;;43.90;;
32333;SDS011;18810;53.040;8.850;2023-11-18T11:36:56;87.15;;;43.17;;
32333;SDS011;18810;53.040;8.850;2023-11-18T11:39:24;88.53;;;42.85;;
32333;SDS011;18810;53.040;8.850;2023-11-18T11:41:55;87.32;;;43.25;;
32333;SDS011;18810;53.040;8.850;2023-11-18T11:44:24;83.95;;;41.58;;
32333;SDS011;18810;53.040;8.850;2023-11-18T11:46:57;79.63;;;39.70;;
32333;SDS011;18810;53.040;8.850;2023-11-18T11:49:25;80.45;;;42.25;;
32333;SDS011;18810;53.040;8.850;2023-11-18T11:52:02;83.43;;;40.78;;
32333;SDS011;18810;53.040;8.850;2023-11-18T11:54:43;76.00;;;39.80;;
32333;SDS011;18810;53.040;8.850;2023-11-18T11:57:21;81.28;;;39.97;;
32333;SDS011;18810;53.040;8.850;2023-11-18T12:02:17;72.15;;;37.35;;
32333;SDS011;18810;53.040;8.850;2023-11-18T12:04:49;73.43;;;38.38;;
32333;SDS011;18810;53.040;8.850;2023-11-18T12:07:19;72.35;;;37.75;;
32333;SDS011;18810;53.040;8.850;2023-11-18T12:09:48;72.38;;;38.50;;
32333;SDS011;18810;53.040;8.850;2023-11-18T12:12:19;73.57;;;37.92;;
32333;SDS011;18810;53.040;8.850;2023-11-18T12:14:50;73.03;;;37.85;;
32333;SDS011;18810;53.040;8.850;2023-11-18T12:20:38;68.78;;;34.28;;
32333;SDS011;18810;53.040;8.850;2023-11-18T12:23:09;76.40;;;36.20;;
32333;SDS011;18810;53.040;8.850;2023-11-18T12:25:46;69.78;;;34.53;;
32333;SDS011;18810;53.040;8.850;2023-11-18T12:28:19;65.90;;;35.25;;
32333;SDS011;18810;53.040;8.850;2023-11-18T12:31:00;63.28;;;33.58;;
32333;SDS011;18810;53.040;8.850;2023-11-18T12:42:06;67.63;;;34.25;;
32333;SDS011;18810;53.040;8.850;2023-11-18T12:44:51;61.77;;;34.23;;
32333;SDS011;18810;53.040;8.850;2023-11-18T12:47:42;63.92;;;33.42;;
32333;SDS011;18810;53.040;8.850;2023-11-18T12:50:09;66.35;;;33.67;;
32333;SDS011;18810;53.040;8.850;2023-11-18T12:52:42;61.95;;;31.98;;
32333;SDS011;18810;53.040;8.850;2023-11-18T12:55:09;66.85;;;31.95;;
32333;SDS011;18810;53.040;8.850;2023-11-18T12:57:45;63.03;;;32.55;;
32333;SDS011;18810;53.040;8.850;2023-11-18T13:00:12;68.75;;;34.30;;
32333;SDS011;18810;53.040;8.850;2023-11-18T13:02:44;64.40;;;31.67;;
32333;SDS011;18810;53.040;8.850;2023-11-18T13:05:09;61.42;;;31.15;;
32333;SDS011;18810;53.040;8.850;2023-11-18T13:07:35;65.15;;;32.17;;
32333;SDS011;18810;53.040;8.850;2023-11-18T13:10:02;70.85;;;34.63;;
32333;SDS011;18810;53.040;8.850;2023-11-18T13:12:29;73.03;;;32.30;;
32333;SDS011;18810;53.040;8.850;2023-11-18T13:14:55;71.47;;;34.33;;
32333;SDS011;18810;53.040;8.850;2023-11-18T13:17:22;78.38;;;35.47;;
32333;SDS011;18810;53.040;8.850;2023-11-18T13:19:47;64.47;;;34.20;;
32333;SDS011;18810;53.040;8.850;2023-11-18T13:22:16;75.50;;;35.22;;
32333;SDS011;18810;53.040;8.850;2023-11-18T13:24:45;71.18;;;34.97;;
32333;SDS011;18810;53.040;8.850;2023-11-18T13:27:15;73.30;;;33.40;;
32333;SDS011;18810;53.040;8.850;2023-11-18T13:29:45;58.90;;;28.35;;
32333;SDS011;18810;53.040;8.850;2023-11-18T13:32:16;57.33;;;28.63;;
32333;SDS011;18810;53.040;8.850;2023-11-18T13:34:43;60.22;;;29.42;;
32333;SDS011;18810;53.040;8.850;2023-11-18T13:37:09;65.93;;;28.45;;
32333;SDS011;18810;53.040;8.850;2023-11-18T13:39:38;53.45;;;26.02;;
32333;SDS011;18810;53.040;8.850;2023-11-18T13:44:49;69.40;;;29.15;;
32333;SDS011;18810;53.040;8.850;2023-11-18T13:47:18;55.60;;;26.23;;
32333;SDS011;18810;53.040;8.850;2023-11-18T13:49:45;53.03;;;25.67;;
32333;SDS011;18810;53.040;8.850;2023-11-18T13:52:15;55.00;;;24.97;;
32333;SDS011;18810;53.040;8.850;2023-11-18T13:54:43;49.05;;;22.55;;
32333;SDS011;18810;53.040;8.850;2023-11-18T13:57:13;44.47;;;21.65;;
32333;SDS011;18810;53.040;8.850;2023-11-18T13:59:39;46.78;;;21.55;;
32333;SDS011;18810;53.040;8.850;2023-11-18T14:02:05;42.03;;;20.80;;
32333;SDS011;18810;53.040;8.850;2023-11-18T14:04:31;41.42;;;20.15;;
32333;SDS011;18810;53.040;8.850;2023-11-18T14:07:02;40.88;;;19.90;;
32333;SDS011;18810;53.040;8.850;2023-11-18T14:09:34;40.38;;;19.30;;
32333;SDS011;18810;53.040;8.850;2023-11-18T14:12:09;40.25;;;19.58;;
32333;SDS011;18810;53.040;8.850;2023-11-18T14:14:36;42.75;;;19.33;;
32333;SDS011;18810;53.040;8.850;2023-11-18T14:17:03;42.03;;;19.23;;
32333;SDS011;18810;53.040;8.850;2023-11-18T14:19:31;41.40;;;19.88;;
32333;SDS011;18810;53.040;8.850;2023-11-18T14:21:57;37.97;;;18.25;;
32333;SDS011;18810;53.040;8.850;2023-11-18T14:24:23;36.65;;;18.83;;
32333;SDS011;18810;53.040;8.850;2023-11-18T14:26:53;39.50;;;20.15;;
32333;SDS011;18810;53.040;8.850;2023-11-18T14:29:19;40.28;;;19.30;;
32333;SDS011;18810;53.040;8.850;2023-11-18T14:31:45;40.05;;;18.88;;
32333;SDS011;18810;53.040;8.850;2023-11-18T14:34:11;36.13;;;19.00;;
32333;SDS011;18810;53.040;8.850;2023-11-18T14:36:37;41.95;;;20.48;;
32333;SDS011;18810;53.040;8.850;2023-11-18T14:39:03;37.95;;;19.48;;
32333;SDS011;18810;53.040;8.850;2023-11-18T14:41:29;46.45;;;21.67;;
32333;SDS011;18810;53.040;8.850;2023-11-18T14:43:56;45.97;;;21.23;;
32333;SDS011;18810;53.040;8.850;2023-11-18T14:46:23;44.15;;;22.23;;
32333;SDS011;18810;53.040;8.850;2023-11-18T14:48:49;48.50;;;23.88;;
32333;SDS011;18810;53.040;8.850;2023-11-18T14:51:17;49.80;;;23.65;;
32333;SDS011;18810;53.040;8.850;2023-11-18T14:53:43;45.08;;;21.60;;
32333;SDS011;18810;53.040;8.850;2023-11-18T14:56:09;45.80;;;23.92;;